sensor_id;sensor_type;location;lat;lon;timestamp;P1;durP1;ratioP1;P2;durP2;ratioP2
61702;SDS011;47622;47.726;3.298;2023-01-29T00:00:37;20.92;;;10.82;;
61702;SDS011;47622;47.726;3.298;2023-01-29T00:03:03;23.38;;;12.23;;
61702;SDS011;47622;47.726;3.298;2023-01-29T00:05:29;23.17;;;11.38;;
61702;SDS011;47622;47.726;3.298;2023-01-29T00:07:55;22.52;;;12.10;;
61702;SDS011;47622;47.726;3.298;2023-01-29T00:10:22;24.27;;;11.30;;
61702;SDS011;47622;47.726;3.298;2023-01-29T00:12:48;21.23;;;11.55;;
61702;SDS011;47622;47.726;3.298;2023-01-29T00:15:16;22.83;;;11.82;;
61702;SDS011;47622;47.726;3.298;2023-01-29T00:17:42;21.48;;;11.13;;
61702;SDS011;47622;47.726;3.298;2023-01-29T00:20:07;22.02;;;11.68;;
61702;SDS011;47622;47.726;3.298;2023-01-29T00:22:34;24.17;;;11.02;;
61702;SDS011;47622;47.726;3.298;2023-01-29T00:24:59;24.48;;;11.30;;
61702;SDS011;47622;47.726;3.298;2023-01-29T00:27:26;21.88;;;10.00;;
61702;SDS011;47622;47.726;3.298;2023-01-29T00:29:52;22.52;;;10.75;;
61702;SDS011;47622;47.726;3.298;2023-01-29T00:32:36;19.75;;;10.20;;
61702;SDS011;47622;47.726;3.298;2023-01-29T00:35:04;22.58;;;11.57;;
61702;SDS011;47622;47.726;3.298;2023-01-29T00:37:30;23.23;;;11.48;;
61702;SDS011;47622;47.726;3.298;2023-01-29T00:39:56;22.60;;;11.23;;
61702;SDS011;47622;47.726;3.298;2023-01-29T00:42:23;21.15;;;11.48;;
61702;SDS011;47622;47.726;3.298;2023-01-29T00:45:07;22.80;;;11.20;;
61702;SDS011;47622;47.726;3.298;2023-01-29T00:47:33;23.25;;;11.20;;
61702;SDS011;47622;47.726;3.298;2023-01-29T00:50:03;21.25;;;10.60;;
61702;SDS011;47622;47.726;3.298;2023-01-29T00:52:33;19.55;;;9.52;;
61702;SDS011;47622;47.726;3.298;2023-01-29T00:55:00;22.02;;;10.90;;
61702;SDS011;47622;47.726;3.298;2023-01-29T00:57:27;20.95;;;11.40;;
61702;SDS011;47622;47.726;3.298;2023-01-29T00:59:54;22.45;;;10.88;;
61702;SDS011;47622;47.726;3.298;2023-01-29T01:02:20;19.80;;;9.90;;
61702;SDS011;47622;47.726;3.298;2023-01-29T01:05:05;20.17;;;10.35;;
61702;SDS011;47622;47.726;3.298;2023-01-29T01:07:32;21.20;;;10.40;;
61702;SDS011;47622;47.726;3.298;2023-01-29T01:10:00;22.30;;;10.35;;
61702;SDS011;47622;47.726;3.298;2023-01-29T01:12:44;21.50;;;10.20;;
61702;SDS011;47622;47.726;3.298;2023-01-29T01:15:10;19.35;;;10.15;;
61702;SDS011;47622;47.726;3.298;2023-01-29T01:17:36;23.00;;;10.65;;
61702;SDS011;47622;47.726;3.298;2023-01-29T01:20:03;19.90;;;11.15;;
61702;SDS011;47622;47.726;3.298;2023-01-29T01:22:29;22.10;;;11.35;;
61702;SDS011;47622;47.726;3.298;2023-01-29T01:24:55;21.05;;;11.02;;
61702;SDS011;47622;47.726;3.298;2023-01-29T01:27:21;21.85;;;10.82;;
61702;SDS011;47622;47.726;3.298;2023-01-29T01:29:47;21.35;;;10.93;;
61702;SDS011;47622;47.726;3.298;2023-01-29T01:32:13;22.58;;;10.50;;
61702;SDS011;47622;47.726;3.298;2023-01-29T01:34:40;22.30;;;10.88;;
61702;SDS011;47622;47.726;3.298;2023-01-29T01:37:05;23.55;;;9.95;;
61702;SDS011;47622;47.726;3.298;2023-01-29T01:39:31;19.73;;;10.07;;
61702;SDS011;47622;47.726;3.298;2023-01-29T01:41:56;18.15;;;9.65;;
61702;SDS011;47622;47.726;3.298;2023-01-29T01:47:19;22.50;;;10.70;;
61702;SDS011;47622;47.726;3.298;2023-01-29T01:49:52;19.88;;;10.15;;
61702;SDS011;47622;47.726;3.298;2023-01-29T01:52:19;19.02;;;9.85;;
61702;SDS011;47622;47.726;3.298;2023-01-29T01:54:45;20.17;;;10.20;;
61702;SDS011;47622;47.726;3.298;2023-01-29T01:57:13;21.02;;;10.43;;
61702;SDS011;47622;47.726;3.298;2023-01-29T01:59:51;22.17;;;10.35;;
61702;SDS011;47622;47.726;3.298;2023-01-29T02:02:21;20.52;;;9.88;;
61702;SDS011;47622;47.726;3.298;2023-01-29T02:05:06;21.25;;;10.40;;
61702;SDS011;47622;47.726;3.298;2023-01-29T02:07:52;20.52;;;10.30;;
61702;SDS011;47622;47.726;3.298;2023-01-29T02:10:44;20.48;;;9.95;;
61702;SDS011;47622;47.726;3.298;2023-01-29T02:13:11;18.83;;;9.82;;
61702;SDS011;47622;47.726;3.298;2023-01-29T02:15:46;18.55;;;9.20;;
61702;SDS011;47622;47.726;3.298;2023-01-29T02:18:13;19.00;;;10.20;;
61702;SDS011;47622;47.726;3.298;2023-01-29T02:20:43;17.65;;;9.27;;
61702;SDS011;47622;47.726;3.298;2023-01-29T02:23:20;19.08;;;9.65;;
61702;SDS011;47622;47.726;3.298;2023-01-29T02:28:53;18.40;;;9.05;;
61702;SDS011;47622;47.726;3.298;2023-01-29T02:37:45;18.13;;;8.98;;
61702;SDS011;47622;47.726;3.298;2023-01-29T02:40:42;17.42;;;8.95;;
61702;SDS011;47622;47.726;3.298;2023-01-29T02:51:40;18.15;;;9.23;;
61702;SDS011;47622;47.726;3.298;2023-01-29T02:54:12;15.60;;;8.95;;
61702;SDS011;47622;47.726;3.298;2023-01-29T02:56:58;21.02;;;8.75;;
61702;SDS011;47622;47.726;3.298;2023-01-29T02:59:49;18.10;;;9.20;;
61702;SDS011;47622;47.726;3.298;2023-01-29T03:02:21;16.58;;;9.07;;
61702;SDS011;47622;47.726;3.298;2023-01-29T03:04:58;16.85;;;8.85;;
61702;SDS011;47622;47.726;3.298;2023-01-29T03:07:27;20.88;;;10.10;;
61702;SDS011;47622;47.726;3.298;2023-01-29T03:13:11;19.15;;;10.02;;
61702;SDS011;47622;47.726;3.298;2023-01-29T03:16:00;17.30;;;8.98;;
61702;SDS011;47622;47.726;3.298;2023-01-29T03:18:32;19.60;;;9.65;;
61702;SDS011;47622;47.726;3.298;2023-01-29T03:21:10;18.73;;;10.02;;
61702;SDS011;47622;47.726;3.298;2023-01-29T03:24:00;18.30;;;9.30;;
61702;SDS011;47622;47.726;3.298;2023-01-29T03:26:45;17.05;;;9.20;;
61702;SDS011;47622;47.726;3.298;2023-01-29T03:29:30;19.13;;;8.88;;
61702;SDS011;47622;47.726;3.298;2023-01-29T03:32:17;19.70;;;10.05;;
61702;SDS011;47622;47.726;3.298;2023-01-29T03:34:47;18.55;;;9.60;;
61702;SDS011;47622;47.726;3.298;2023-01-29T03:37:18;17.33;;;9.77;;
61702;SDS011;47622;47.726;3.298;2023-01-29T03:39:48;18.95;;;8.82;;
61702;SDS011;47622;47.726;3.298;2023-01-29T03:42:26;19.63;;;9.50;;
61702;SDS011;47622;47.726;3.298;2023-01-29T03:45:04;17.25;;;9.18;;
61702;SDS011;47622;47.726;3.298;2023-01-29T03:47:49;20.20;;;10.25;;
61702;SDS011;47622;47.726;3.298;2023-01-29T03:50:29;21.15;;;10.13;;
61702;SDS011;47622;47.726;3.298;2023-01-29T04:01:10;17.95;;;9.70;;
61702;SDS011;47622;47.726;3.298;2023-01-29T04:04:04;21.02;;;10.05;;
61702;SDS011;47622;47.726;3.298;2023-01-29T04:06:42;19.77;;;9.98;;
61702;SDS011;47622;47.726;3.298;2023-01-29T04:09:12;18.83;;;9.63;;
61702;SDS011;47622;47.726;3.298;2023-01-29T04:11:51;18.30;;;10.25;;
61702;SDS011;47622;47.726;3.298;2023-01-29T04:14:39;22.70;;;10.85;;
61702;SDS011;47622;47.726;3.298;2023-01-29T04:17:17;18.98;;;10.10;;
61702;SDS011;47622;47.726;3.298;2023-01-29T04:19:46;20.33;;;10.80;;
61702;SDS011;47622;47.726;3.298;2023-01-29T04:22:14;19.58;;;9.60;;
61702;SDS011;47622;47.726;3.298;2023-01-29T04:24:44;19.23;;;10.15;;
61702;SDS011;47622;47.726;3.298;2023-01-29T04:29:53;22.48;;;10.18;;
61702;SDS011;47622;47.726;3.298;2023-01-29T04:32:31;20.27;;;10.75;;
61702;SDS011;47622;47.726;3.298;2023-01-29T04:43:18;22.65;;;10.48;;
61702;SDS011;47622;47.726;3.298;2023-01-29T04:48:39;19.95;;;10.98;;
61702;SDS011;47622;47.726;3.298;2023-01-29T04:51:19;18.80;;;10.10;;
61702;SDS011;47622;47.726;3.298;2023-01-29T04:53:58;22.40;;;11.20;;
61702;SDS011;47622;47.726;3.298;2023-01-29T04:59:25;25.65;;;12.45;;
61702;SDS011;47622;47.726;3.298;2023-01-29T05:01:57;25.83;;;12.30;;
61702;SDS011;47622;47.726;3.298;2023-01-29T05:04:26;22.88;;;12.05;;
61702;SDS011;47622;47.726;3.298;2023-01-29T05:06:56;22.52;;;11.70;;
61702;SDS011;47622;47.726;3.298;2023-01-29T05:09:23;25.40;;;11.85;;
61702;SDS011;47622;47.726;3.298;2023-01-29T05:11:50;21.52;;;10.52;;
61702;SDS011;47622;47.726;3.298;2023-01-29T05:14:16;21.77;;;11.32;;
61702;SDS011;47622;47.726;3.298;2023-01-29T05:16:45;19.85;;;10.90;;
61702;SDS011;47622;47.726;3.298;2023-01-29T05:19:13;20.85;;;10.90;;
61702;SDS011;47622;47.726;3.298;2023-01-29T05:21:41;21.92;;;11.75;;
61702;SDS011;47622;47.726;3.298;2023-01-29T05:24:11;19.02;;;9.73;;
61702;SDS011;47622;47.726;3.298;2023-01-29T05:26:41;19.58;;;10.35;;
61702;SDS011;47622;47.726;3.298;2023-01-29T05:29:26;20.80;;;11.13;;
61702;SDS011;47622;47.726;3.298;2023-01-29T05:31:52;23.17;;;11.43;;
61702;SDS011;47622;47.726;3.298;2023-01-29T05:34:18;18.70;;;10.02;;
61702;SDS011;47622;47.726;3.298;2023-01-29T05:36:43;18.58;;;10.52;;
61702;SDS011;47622;47.726;3.298;2023-01-29T05:39:09;22.38;;;10.93;;
61702;SDS011;47622;47.726;3.298;2023-01-29T05:41:34;18.15;;;10.00;;
61702;SDS011;47622;47.726;3.298;2023-01-29T05:44:00;20.10;;;10.73;;
61702;SDS011;47622;47.726;3.298;2023-01-29T05:46:26;21.10;;;10.25;;
61702;SDS011;47622;47.726;3.298;2023-01-29T05:48:51;21.92;;;10.60;;
61702;SDS011;47622;47.726;3.298;2023-01-29T05:51:17;23.55;;;11.55;;
61702;SDS011;47622;47.726;3.298;2023-01-29T05:53:43;22.27;;;11.30;;
61702;SDS011;47622;47.726;3.298;2023-01-29T05:56:08;24.63;;;12.02;;
61702;SDS011;47622;47.726;3.298;2023-01-29T05:58:34;20.25;;;10.82;;
61702;SDS011;47622;47.726;3.298;2023-01-29T06:01:07;20.30;;;10.75;;
61702;SDS011;47622;47.726;3.298;2023-01-29T06:03:43;22.83;;;11.05;;
61702;SDS011;47622;47.726;3.298;2023-01-29T06:06:09;21.20;;;10.95;;
61702;SDS011;47622;47.726;3.298;2023-01-29T06:08:37;19.00;;;10.10;;
61702;SDS011;47622;47.726;3.298;2023-01-29T06:11:03;22.02;;;11.32;;
61702;SDS011;47622;47.726;3.298;2023-01-29T06:13:31;20.08;;;11.43;;
61702;SDS011;47622;47.726;3.298;2023-01-29T06:15:56;20.95;;;10.57;;
61702;SDS011;47622;47.726;3.298;2023-01-29T06:18:22;21.98;;;11.18;;
61702;SDS011;47622;47.726;3.298;2023-01-29T06:20:47;20.48;;;10.57;;
61702;SDS011;47622;47.726;3.298;2023-01-29T06:23:13;22.02;;;12.52;;
61702;SDS011;47622;47.726;3.298;2023-01-29T06:25:39;22.65;;;11.40;;
61702;SDS011;47622;47.726;3.298;2023-01-29T06:28:04;22.98;;;11.10;;
61702;SDS011;47622;47.726;3.298;2023-01-29T06:30:30;22.50;;;11.48;;
61702;SDS011;47622;47.726;3.298;2023-01-29T06:32:58;19.73;;;11.20;;
61702;SDS011;47622;47.726;3.298;2023-01-29T06:35:25;23.25;;;11.45;;
61702;SDS011;47622;47.726;3.298;2023-01-29T06:37:52;20.83;;;11.27;;
61702;SDS011;47622;47.726;3.298;2023-01-29T06:40:18;21.58;;;10.43;;
61702;SDS011;47622;47.726;3.298;2023-01-29T06:42:43;17.13;;;9.45;;
61702;SDS011;47622;47.726;3.298;2023-01-29T06:45:09;19.55;;;9.88;;
61702;SDS011;47622;47.726;3.298;2023-01-29T06:47:35;19.20;;;10.65;;
61702;SDS011;47622;47.726;3.298;2023-01-29T06:50:01;20.23;;;10.52;;
61702;SDS011;47622;47.726;3.298;2023-01-29T06:52:27;20.88;;;10.57;;
61702;SDS011;47622;47.726;3.298;2023-01-29T06:54:54;19.65;;;10.48;;
61702;SDS011;47622;47.726;3.298;2023-01-29T06:57:20;20.08;;;10.65;;
61702;SDS011;47622;47.726;3.298;2023-01-29T06:59:45;20.02;;;10.95;;
61702;SDS011;47622;47.726;3.298;2023-01-29T07:02:11;23.88;;;11.93;;
61702;SDS011;47622;47.726;3.298;2023-01-29T07:04:37;20.17;;;11.00;;
61702;SDS011;47622;47.726;3.298;2023-01-29T07:07:03;18.33;;;9.95;;
61702;SDS011;47622;47.726;3.298;2023-01-29T07:09:29;18.27;;;10.45;;
61702;SDS011;47622;47.726;3.298;2023-01-29T07:11:55;21.50;;;9.85;;
61702;SDS011;47622;47.726;3.298;2023-01-29T07:14:20;20.55;;;10.38;;
61702;SDS011;47622;47.726;3.298;2023-01-29T07:16:46;21.52;;;11.32;;
61702;SDS011;47622;47.726;3.298;2023-01-29T07:19:11;22.30;;;10.95;;
61702;SDS011;47622;47.726;3.298;2023-01-29T07:21:37;23.30;;;11.65;;
61702;SDS011;47622;47.726;3.298;2023-01-29T07:24:03;21.05;;;10.48;;
61702;SDS011;47622;47.726;3.298;2023-01-29T07:26:28;18.13;;;9.93;;
61702;SDS011;47622;47.726;3.298;2023-01-29T07:28:54;20.20;;;9.60;;
61702;SDS011;47622;47.726;3.298;2023-01-29T07:31:20;19.25;;;9.82;;
61702;SDS011;47622;47.726;3.298;2023-01-29T07:33:46;19.13;;;9.65;;
61702;SDS011;47622;47.726;3.298;2023-01-29T07:36:12;16.67;;;9.23;;
61702;SDS011;47622;47.726;3.298;2023-01-29T07:38:38;19.65;;;10.20;;
61702;SDS011;47622;47.726;3.298;2023-01-29T07:41:04;21.73;;;10.65;;
61702;SDS011;47622;47.726;3.298;2023-01-29T07:43:30;17.00;;;9.75;;
61702;SDS011;47622;47.726;3.298;2023-01-29T07:45:55;17.65;;;10.30;;
61702;SDS011;47622;47.726;3.298;2023-01-29T07:48:26;20.73;;;10.80;;
61702;SDS011;47622;47.726;3.298;2023-01-29T07:50:55;19.02;;;10.38;;
61702;SDS011;47622;47.726;3.298;2023-01-29T07:53:21;18.88;;;9.40;;
61702;SDS011;47622;47.726;3.298;2023-01-29T07:55:47;19.92;;;10.93;;
61702;SDS011;47622;47.726;3.298;2023-01-29T07:58:12;19.40;;;10.57;;
61702;SDS011;47622;47.726;3.298;2023-01-29T08:00:38;21.88;;;10.60;;
61702;SDS011;47622;47.726;3.298;2023-01-29T08:03:11;18.70;;;10.15;;
61702;SDS011;47622;47.726;3.298;2023-01-29T08:05:40;20.63;;;11.00;;
61702;SDS011;47622;47.726;3.298;2023-01-29T08:08:06;19.50;;;9.63;;
61702;SDS011;47622;47.726;3.298;2023-01-29T08:10:32;21.00;;;10.60;;
61702;SDS011;47622;47.726;3.298;2023-01-29T08:12:59;19.63;;;10.35;;
61702;SDS011;47622;47.726;3.298;2023-01-29T08:15:25;20.08;;;10.50;;
61702;SDS011;47622;47.726;3.298;2023-01-29T08:17:52;19.67;;;10.52;;
61702;SDS011;47622;47.726;3.298;2023-01-29T08:20:18;21.05;;;11.38;;
61702;SDS011;47622;47.726;3.298;2023-01-29T08:22:45;18.35;;;10.27;;
61702;SDS011;47622;47.726;3.298;2023-01-29T08:25:11;19.50;;;10.23;;
61702;SDS011;47622;47.726;3.298;2023-01-29T08:27:38;22.02;;;11.77;;
61702;SDS011;47622;47.726;3.298;2023-01-29T08:30:04;18.23;;;10.02;;
61702;SDS011;47622;47.726;3.298;2023-01-29T08:32:30;20.13;;;11.32;;
61702;SDS011;47622;47.726;3.298;2023-01-29T08:34:56;19.77;;;10.45;;
61702;SDS011;47622;47.726;3.298;2023-01-29T08:37:22;26.33;;;11.32;;
61702;SDS011;47622;47.726;3.298;2023-01-29T08:39:47;19.27;;;10.70;;
61702;SDS011;47622;47.726;3.298;2023-01-29T08:42:13;20.77;;;11.07;;
61702;SDS011;47622;47.726;3.298;2023-01-29T08:44:38;21.52;;;11.65;;
61702;SDS011;47622;47.726;3.298;2023-01-29T08:47:04;20.48;;;11.20;;
61702;SDS011;47622;47.726;3.298;2023-01-29T08:49:30;19.98;;;11.57;;
61702;SDS011;47622;47.726;3.298;2023-01-29T08:51:55;19.48;;;9.55;;
61702;SDS011;47622;47.726;3.298;2023-01-29T08:54:21;21.83;;;10.63;;
61702;SDS011;47622;47.726;3.298;2023-01-29T08:56:48;23.55;;;11.35;;
61702;SDS011;47622;47.726;3.298;2023-01-29T08:59:14;19.77;;;10.55;;
61702;SDS011;47622;47.726;3.298;2023-01-29T09:01:39;24.20;;;10.80;;
61702;SDS011;47622;47.726;3.298;2023-01-29T09:04:05;18.83;;;10.35;;
61702;SDS011;47622;47.726;3.298;2023-01-29T09:06:31;21.05;;;11.57;;
61702;SDS011;47622;47.726;3.298;2023-01-29T09:08:57;22.05;;;11.00;;
61702;SDS011;47622;47.726;3.298;2023-01-29T09:11:22;17.10;;;10.48;;
61702;SDS011;47622;47.726;3.298;2023-01-29T09:13:48;19.17;;;10.23;;
61702;SDS011;47622;47.726;3.298;2023-01-29T09:16:13;18.13;;;10.30;;
61702;SDS011;47622;47.726;3.298;2023-01-29T09:18:39;19.10;;;10.40;;
61702;SDS011;47622;47.726;3.298;2023-01-29T09:21:04;18.77;;;10.55;;
61702;SDS011;47622;47.726;3.298;2023-01-29T09:23:30;18.35;;;10.23;;
61702;SDS011;47622;47.726;3.298;2023-01-29T09:25:56;18.17;;;10.30;;
61702;SDS011;47622;47.726;3.298;2023-01-29T09:28:22;19.50;;;10.80;;
61702;SDS011;47622;47.726;3.298;2023-01-29T09:30:48;17.35;;;9.82;;
61702;SDS011;47622;47.726;3.298;2023-01-29T09:33:14;22.48;;;11.18;;
61702;SDS011;47622;47.726;3.298;2023-01-29T09:35:40;21.42;;;11.27;;
61702;SDS011;47622;47.726;3.298;2023-01-29T09:38:07;19.88;;;11.27;;
61702;SDS011;47622;47.726;3.298;2023-01-29T09:43:48;20.67;;;10.57;;
61702;SDS011;47622;47.726;3.298;2023-01-29T09:49:00;19.67;;;10.68;;
61702;SDS011;47622;47.726;3.298;2023-01-29T09:51:33;20.10;;;11.30;;
61702;SDS011;47622;47.726;3.298;2023-01-29T09:54:09;21.95;;;11.15;;
61702;SDS011;47622;47.726;3.298;2023-01-29T09:56:36;18.75;;;10.40;;
61702;SDS011;47622;47.726;3.298;2023-01-29T09:59:02;20.60;;;10.77;;
61702;SDS011;47622;47.726;3.298;2023-01-29T10:06:42;19.85;;;11.20;;
61702;SDS011;47622;47.726;3.298;2023-01-29T10:09:34;19.70;;;10.30;;
61702;SDS011;47622;47.726;3.298;2023-01-29T10:12:32;19.65;;;10.52;;
61702;SDS011;47622;47.726;3.298;2023-01-29T10:17:54;21.83;;;12.70;;
61702;SDS011;47622;47.726;3.298;2023-01-29T10:20:33;23.10;;;11.52;;
61702;SDS011;47622;47.726;3.298;2023-01-29T10:23:17;20.38;;;11.43;;
61702;SDS011;47622;47.726;3.298;2023-01-29T10:25:47;19.60;;;11.25;;
61702;SDS011;47622;47.726;3.298;2023-01-29T10:28:18;18.38;;;11.07;;
61702;SDS011;47622;47.726;3.298;2023-01-29T10:30:48;18.88;;;10.77;;
61702;SDS011;47622;47.726;3.298;2023-01-29T10:33:25;19.90;;;10.80;;
61702;SDS011;47622;47.726;3.298;2023-01-29T10:36:02;18.42;;;10.98;;
61702;SDS011;47622;47.726;3.298;2023-01-29T10:57:40;18.15;;;9.55;;
61702;SDS011;47622;47.726;3.298;2023-01-29T11:03:14;20.10;;;10.93;;
61702;SDS011;47622;47.726;3.298;2023-01-29T11:11:51;17.95;;;10.10;;
61702;SDS011;47622;47.726;3.298;2023-01-29T11:17:15;16.52;;;10.45;;
61702;SDS011;47622;47.726;3.298;2023-01-29T11:19:43;19.33;;;11.30;;
61702;SDS011;47622;47.726;3.298;2023-01-29T11:22:14;16.85;;;10.15;;
61702;SDS011;47622;47.726;3.298;2023-01-29T11:24:45;18.23;;;11.20;;
61702;SDS011;47622;47.726;3.298;2023-01-29T11:29:47;17.65;;;10.93;;
61702;SDS011;47622;47.726;3.298;2023-01-29T11:35:16;20.10;;;11.45;;
61702;SDS011;47622;47.726;3.298;2023-01-29T11:37:43;20.27;;;11.48;;
61702;SDS011;47622;47.726;3.298;2023-01-29T11:46:02;19.15;;;11.02;;
61702;SDS011;47622;47.726;3.298;2023-01-29T11:48:40;19.15;;;11.35;;
61702;SDS011;47622;47.726;3.298;2023-01-29T11:51:06;19.25;;;11.18;;
61702;SDS011;47622;47.726;3.298;2023-01-29T11:53:44;20.60;;;11.68;;
61702;SDS011;47622;47.726;3.298;2023-01-29T11:58:44;19.33;;;10.68;;
61702;SDS011;47622;47.726;3.298;2023-01-29T12:01:12;18.00;;;10.68;;
61702;SDS011;47622;47.726;3.298;2023-01-29T12:03:50;19.33;;;10.90;;
61702;SDS011;47622;47.726;3.298;2023-01-29T12:06:30;20.17;;;11.35;;
61702;SDS011;47622;47.726;3.298;2023-01-29T12:09:01;18.33;;;10.60;;
61702;SDS011;47622;47.726;3.298;2023-01-29T12:11:34;18.55;;;11.57;;
61702;SDS011;47622;47.726;3.298;2023-01-29T12:14:03;18.13;;;10.52;;
61702;SDS011;47622;47.726;3.298;2023-01-29T12:16:45;17.73;;;11.10;;
61702;SDS011;47622;47.726;3.298;2023-01-29T12:19:29;19.13;;;10.48;;
61702;SDS011;47622;47.726;3.298;2023-01-29T12:24:49;20.30;;;11.45;;
61702;SDS011;47622;47.726;3.298;2023-01-29T12:27:23;19.38;;;12.18;;
61702;SDS011;47622;47.726;3.298;2023-01-29T12:30:00;16.92;;;10.43;;
61702;SDS011;47622;47.726;3.298;2023-01-29T12:32:43;19.95;;;11.32;;
61702;SDS011;47622;47.726;3.298;2023-01-29T12:38:19;17.65;;;10.93;;
61702;SDS011;47622;47.726;3.298;2023-01-29T12:40:54;18.98;;;11.27;;
61702;SDS011;47622;47.726;3.298;2023-01-29T12:43:29;21.10;;;11.65;;
61702;SDS011;47622;47.726;3.298;2023-01-29T12:46:02;20.95;;;11.18;;
61702;SDS011;47622;47.726;3.298;2023-01-29T12:48:33;22.77;;;12.25;;
61702;SDS011;47622;47.726;3.298;2023-01-29T12:51:06;24.50;;;11.52;;
61702;SDS011;47622;47.726;3.298;2023-01-29T12:53:38;20.92;;;12.07;;
61702;SDS011;47622;47.726;3.298;2023-01-29T12:56:09;23.15;;;13.20;;
61702;SDS011;47622;47.726;3.298;2023-01-29T12:58:44;20.58;;;12.05;;
61702;SDS011;47622;47.726;3.298;2023-01-29T13:06:38;22.67;;;11.95;;
61702;SDS011;47622;47.726;3.298;2023-01-29T13:11:40;19.55;;;11.15;;
61702;SDS011;47622;47.726;3.298;2023-01-29T13:16:40;25.60;;;12.50;;
61702;SDS011;47622;47.726;3.298;2023-01-29T13:19:26;22.83;;;11.65;;
61702;SDS011;47622;47.726;3.298;2023-01-29T13:21:58;25.83;;;13.00;;
61702;SDS011;47622;47.726;3.298;2023-01-29T13:24:37;23.88;;;12.20;;
61702;SDS011;47622;47.726;3.298;2023-01-29T13:27:04;19.48;;;11.10;;
61702;SDS011;47622;47.726;3.298;2023-01-29T13:29:30;23.27;;;12.18;;
61702;SDS011;47622;47.726;3.298;2023-01-29T13:31:57;23.30;;;12.95;;
61702;SDS011;47622;47.726;3.298;2023-01-29T13:34:28;21.10;;;11.65;;
61702;SDS011;47622;47.726;3.298;2023-01-29T13:37:09;20.83;;;11.02;;
61702;SDS011;47622;47.726;3.298;2023-01-29T13:39:45;25.67;;;12.07;;
61702;SDS011;47622;47.726;3.298;2023-01-29T13:42:16;24.38;;;11.43;;
61702;SDS011;47622;47.726;3.298;2023-01-29T13:45:02;23.00;;;12.68;;
61702;SDS011;47622;47.726;3.298;2023-01-29T13:47:32;22.95;;;11.77;;
61702;SDS011;47622;47.726;3.298;2023-01-29T13:50:19;22.08;;;11.90;;
61702;SDS011;47622;47.726;3.298;2023-01-29T13:53:00;24.58;;;12.93;;
61702;SDS011;47622;47.726;3.298;2023-01-29T13:55:34;22.92;;;12.35;;
61702;SDS011;47622;47.726;3.298;2023-01-29T13:58:02;23.83;;;11.55;;
61702;SDS011;47622;47.726;3.298;2023-01-29T14:10:28;21.70;;;10.95;;
61702;SDS011;47622;47.726;3.298;2023-01-29T14:15:39;20.70;;;11.57;;
61702;SDS011;47622;47.726;3.298;2023-01-29T14:18:20;25.02;;;12.00;;
61702;SDS011;47622;47.726;3.298;2023-01-29T14:20:50;23.45;;;12.40;;
61702;SDS011;47622;47.726;3.298;2023-01-29T14:25:46;24.52;;;12.25;;
61702;SDS011;47622;47.726;3.298;2023-01-29T14:28:15;24.83;;;12.52;;
61702;SDS011;47622;47.726;3.298;2023-01-29T14:30:46;24.25;;;12.40;;
61702;SDS011;47622;47.726;3.298;2023-01-29T14:33:56;24.17;;;13.20;;
61702;SDS011;47622;47.726;3.298;2023-01-29T14:36:05;23.45;;;12.20;;
61702;SDS011;47622;47.726;3.298;2023-01-29T14:38:36;20.45;;;11.40;;
61702;SDS011;47622;47.726;3.298;2023-01-29T14:41:24;21.65;;;11.60;;
61702;SDS011;47622;47.726;3.298;2023-01-29T14:46:57;21.90;;;11.43;;
61702;SDS011;47622;47.726;3.298;2023-01-29T14:52:17;24.92;;;12.70;;
61702;SDS011;47622;47.726;3.298;2023-01-29T14:54:46;22.13;;;12.02;;
61702;SDS011;47622;47.726;3.298;2023-01-29T14:57:14;25.67;;;12.88;;
61702;SDS011;47622;47.726;3.298;2023-01-29T15:02:21;22.13;;;11.80;;
61702;SDS011;47622;47.726;3.298;2023-01-29T15:04:58;22.95;;;12.13;;
61702;SDS011;47622;47.726;3.298;2023-01-29T15:07:32;25.85;;;12.90;;
61702;SDS011;47622;47.726;3.298;2023-01-29T15:10:07;23.45;;;11.38;;
61702;SDS011;47622;47.726;3.298;2023-01-29T15:15:45;21.38;;;11.30;;
61702;SDS011;47622;47.726;3.298;2023-01-29T15:18:36;21.23;;;10.65;;
61702;SDS011;47622;47.726;3.298;2023-01-29T15:21:10;21.85;;;11.65;;
61702;SDS011;47622;47.726;3.298;2023-01-29T15:23:38;24.15;;;12.35;;
61702;SDS011;47622;47.726;3.298;2023-01-29T15:26:16;22.50;;;10.80;;
61702;SDS011;47622;47.726;3.298;2023-01-29T15:28:44;22.25;;;12.05;;
61702;SDS011;47622;47.726;3.298;2023-01-29T15:33:44;20.83;;;10.68;;
61702;SDS011;47622;47.726;3.298;2023-01-29T15:36:18;26.02;;;12.65;;
61702;SDS011;47622;47.726;3.298;2023-01-29T15:38:47;23.77;;;12.05;;
61702;SDS011;47622;47.726;3.298;2023-01-29T15:41:20;20.90;;;10.88;;
61702;SDS011;47622;47.726;3.298;2023-01-29T15:43:48;20.92;;;10.52;;
61702;SDS011;47622;47.726;3.298;2023-01-29T15:48:50;19.73;;;10.25;;
61702;SDS011;47622;47.726;3.298;2023-01-29T15:51:19;23.10;;;10.82;;
61702;SDS011;47622;47.726;3.298;2023-01-29T15:53:55;21.27;;;11.25;;
61702;SDS011;47622;47.726;3.298;2023-01-29T15:56:27;21.02;;;10.25;;
61702;SDS011;47622;47.726;3.298;2023-01-29T15:58:58;23.38;;;11.63;;
61702;SDS011;47622;47.726;3.298;2023-01-29T16:01:27;20.52;;;10.63;;
61702;SDS011;47622;47.726;3.298;2023-01-29T16:03:53;21.27;;;10.50;;
61702;SDS011;47622;47.726;3.298;2023-01-29T16:06:21;22.35;;;11.25;;
61702;SDS011;47622;47.726;3.298;2023-01-29T16:08:49;20.83;;;10.60;;
61702;SDS011;47622;47.726;3.298;2023-01-29T16:11:16;22.35;;;11.00;;
61702;SDS011;47622;47.726;3.298;2023-01-29T16:13:43;20.45;;;10.40;;
61702;SDS011;47622;47.726;3.298;2023-01-29T16:18:41;21.38;;;10.43;;
61702;SDS011;47622;47.726;3.298;2023-01-29T16:21:10;22.73;;;10.52;;
61702;SDS011;47622;47.726;3.298;2023-01-29T16:23:59;20.73;;;10.77;;
61702;SDS011;47622;47.726;3.298;2023-01-29T16:26:29;19.35;;;10.43;;
61702;SDS011;47622;47.726;3.298;2023-01-29T16:29:02;20.42;;;10.38;;
61702;SDS011;47622;47.726;3.298;2023-01-29T16:31:30;18.40;;;10.27;;
61702;SDS011;47622;47.726;3.298;2023-01-29T16:33:57;19.30;;;10.55;;
61702;SDS011;47622;47.726;3.298;2023-01-29T16:36:26;22.42;;;10.93;;
61702;SDS011;47622;47.726;3.298;2023-01-29T16:39:03;21.15;;;10.95;;
61702;SDS011;47622;47.726;3.298;2023-01-29T16:41:37;20.65;;;10.30;;
61702;SDS011;47622;47.726;3.298;2023-01-29T16:44:07;17.77;;;9.95;;
61702;SDS011;47622;47.726;3.298;2023-01-29T16:52:55;19.15;;;10.00;;
61702;SDS011;47622;47.726;3.298;2023-01-29T16:55:24;24.65;;;11.45;;
61702;SDS011;47622;47.726;3.298;2023-01-29T16:57:56;21.55;;;10.50;;
61702;SDS011;47622;47.726;3.298;2023-01-29T17:00:23;21.15;;;11.18;;
61702;SDS011;47622;47.726;3.298;2023-01-29T17:02:51;21.95;;;11.02;;
61702;SDS011;47622;47.726;3.298;2023-01-29T17:05:21;23.70;;;11.27;;
61702;SDS011;47622;47.726;3.298;2023-01-29T17:07:51;22.90;;;11.43;;
61702;SDS011;47622;47.726;3.298;2023-01-29T17:10:19;25.60;;;11.30;;
61702;SDS011;47622;47.726;3.298;2023-01-29T17:13:04;20.52;;;10.57;;
61702;SDS011;47622;47.726;3.298;2023-01-29T17:15:42;21.40;;;11.80;;
61702;SDS011;47622;47.726;3.298;2023-01-29T17:18:16;25.90;;;11.82;;
61702;SDS011;47622;47.726;3.298;2023-01-29T17:20:46;21.38;;;11.30;;
61702;SDS011;47622;47.726;3.298;2023-01-29T17:23:12;22.63;;;11.38;;
61702;SDS011;47622;47.726;3.298;2023-01-29T17:25:38;24.48;;;11.43;;
61702;SDS011;47622;47.726;3.298;2023-01-29T17:28:04;24.15;;;11.05;;